Time;durP1;ratioP1;P1;durP2;ratioP2;P2;SDS_P1;SDS_P2;PMS_P1;PMS_P2;Temp;Humidity;BMP_temperature;BMP_pressure;BME280_temperature;BME280_humidity;BME280_pressure;Samples;Min_cycle;Max_cycle;Signal;HPM_P1;HPM_P2
2024/01/10 00:00:08;;;;;;;5.70;4.60;;;;;;;19.19;42.38;102125.81;5029637;28;20056;-60
2024/01/10 00:02:36;;;;;;;5.60;4.60;;;;;;;19.19;42.26;102120.44;5028604;28;20046;-60
2024/01/10 00:05:04;;;;;;;6.55;5.20;;;;;;;19.19;42.22;102117.75;5033770;28;20060;-60
2024/01/10 00:07:31;;;;;;;7.50;4.85;;;;;;;19.18;42.13;102129.47;5035250;28;20037;-59
2024/01/10 00:10:01;;;;;;;7.05;4.75;;;;;;;19.18;42.26;102129.47;5031154;28;20045;-59
2024/01/10 00:12:33;;;;;;;7.65;5.10;;;;;;;19.18;42.36;102125.94;5028163;28;20046;-59
2024/01/10 00:15:01;;;;;;;7.15;5.20;;;;;;;19.17;42.24;102125.06;5033842;28;20053;-59
2024/01/10 00:17:29;;;;;;;6.07;4.60;;;;;;;19.17;42.25;102122.38;5029985;28;20056;-59
2024/01/10 00:19:56;;;;;;;7.28;4.72;;;;;;;19.16;42.05;102123.34;5035870;28;20500;-59
2024/01/10 00:22:24;;;;;;;6.15;4.60;;;;;;;19.16;42.20;102122.47;5027937;28;20046;-59
2024/01/10 00:24:51;;;;;;;8.15;5.35;;;;;;;19.15;42.16;102123.44;5034509;28;20052;-59
2024/01/10 00:27:18;;;;;;;6.40;4.97;;;;;;;19.15;42.08;102128.78;5031349;28;20045;-59
2024/01/10 00:29:46;;;;;;;6.72;4.70;;;;;;;19.14;42.15;102130.63;5028057;28;20404;-59
2024/01/10 00:32:13;;;;;;;5.80;5.00;;;;;;;19.13;42.25;102131.59;5027535;28;20049;-59
2024/01/10 00:34:40;;;;;;;7.00;4.80;;;;;;;19.13;41.92;102134.28;5033389;28;20053;-59
2024/01/10 00:37:08;;;;;;;6.57;4.43;;;;;;;19.12;42.02;102132.56;5031290;28;20049;-58
2024/01/10 00:39:35;;;;;;;6.53;5.15;;;;;;;19.12;42.10;102134.34;5028139;28;20061;-58
2024/01/10 00:42:03;;;;;;;7.13;4.90;;;;;;;19.11;41.95;102132.63;5026436;28;20053;-58
2024/01/10 00:44:30;;;;;;;6.32;4.85;;;;;;;19.10;42.10;102129.09;5022509;28;20052;-58
2024/01/10 00:46:58;;;;;;;6.85;5.07;;;;;;;19.11;41.90;102136.19;5032726;28;20052;-58
2024/01/10 00:49:27;;;;;;;6.15;4.60;;;;;;;19.09;41.99;102140.81;5028206;28;20053;-58
2024/01/10 00:51:54;;;;;;;6.50;4.82;;;;;;;19.09;41.76;102135.44;5027832;28;20184;-58
2024/01/10 00:54:22;;;;;;;5.45;4.20;;;;;;;19.09;42.03;102143.50;5031602;28;20420;-58
2024/01/10 00:56:50;;;;;;;6.07;4.43;;;;;;;19.08;41.71;102147.13;5029141;28;20042;-59
2024/01/10 00:59:17;;;;;;;6.45;4.53;;;;;;;19.07;41.95;102144.53;5034462;28;20053;-58
2024/01/10 01:01:45;;;;;;;6.80;4.47;;;;;;;19.06;41.93;102142.81;5027662;28;20682;-59
2024/01/10 01:04:12;;;;;;;7.50;4.78;;;;;;;19.04;41.75;102156.34;5037134;28;20041;-58
2024/01/10 01:06:40;;;;;;;6.25;4.70;;;;;;;19.04;41.87;102156.34;5031132;28;20522;-59
2024/01/10 01:09:07;;;;;;;8.00;4.97;;;;;;;19.04;42.04;102148.31;5028235;28;20056;-59
2024/01/10 01:11:34;;;;;;;7.15;4.45;;;;;;;19.04;42.09;102153.66;5026558;28;20034;-59
2024/01/10 01:14:02;;;;;;;5.60;4.22;;;;;;;19.02;41.95;102153.75;5033643;28;20045;-60
2024/01/10 01:16:31;;;;;;;6.65;5.07;;;;;;;19.02;42.08;102164.47;5036170;28;20410;-60
2024/01/10 01:18:58;;;;;;;5.90;4.32;;;;;;;19.01;42.08;102160.06;5027716;28;20408;-60
2024/01/10 01:21:26;;;;;;;6.32;4.50;;;;;;;19.01;42.04;102168.13;5034850;28;20488;-60
2024/01/10 01:23:54;;;;;;;7.28;4.75;;;;;;;19.00;41.94;102161.03;5025548;28;20038;-60
2024/01/10 01:26:21;;;;;;;6.15;4.63;;;;;;;19.00;42.10;102154.81;5025152;28;20056;-60
2024/01/10 01:28:49;;;;;;;5.82;4.80;;;;;;;19.00;42.09;102160.19;5027223;28;20046;-61
2024/01/10 01:31:16;;;;;;;7.22;5.30;;;;;;;19.00;41.96;102165.56;5033488;28;20049;-60
2024/01/10 01:33:43;;;;;;;7.22;5.03;;;;;;;18.99;42.07;102174.53;5030869;28;20033;-60
2024/01/10 01:36:11;;;;;;;7.07;5.18;;;;;;;18.98;41.92;102178.19;5040460;28;20056;-60
2024/01/10 01:38:38;;;;;;;5.60;4.75;;;;;;;18.98;42.05;102178.19;5034545;28;20049;-60
2024/01/10 01:41:05;;;;;;;7.85;4.88;;;;;;;18.98;42.10;102180.88;5027104;28;20073;-61
2024/01/10 01:43:34;;;;;;;7.05;4.82;;;;;;;18.97;42.04;102188.06;5034425;28;20048;-60
2024/01/10 01:46:03;;;;;;;6.32;4.60;;;;;;;18.96;42.15;102182.81;5034807;28;20519;-61
2024/01/10 01:48:30;;;;;;;6.40;4.30;;;;;;;18.95;42.04;102187.28;5027240;28;20050;-60
2024/01/10 01:51:03;;;;;;;5.10;4.20;;;;;;;18.95;42.04;102183.75;5037402;28;20050;-60
2024/01/10 01:53:31;;;;;;;7.50;4.82;;;;;;;18.94;42.02;102188.25;5029959;28;20041;-60
2024/01/10 01:56:03;;;;;;;6.75;4.78;;;;;;;18.95;42.14;102183.75;5035710;28;20050;-60
2024/01/10 01:58:30;;;;;;;6.38;4.43;;;;;;;18.94;42.06;102182.03;5020539;28;20042;-61
2024/01/10 02:00:59;;;;;;;6.07;4.65;;;;;;;18.93;42.15;102183.00;5030578;28;20045;-61
2024/01/10 02:03:26;;;;;;;6.30;4.55;;;;;;;18.92;42.14;102179.44;5031181;28;20411;-60
2024/01/10 02:05:54;;;;;;;5.55;4.82;;;;;;;18.94;42.17;102179.34;5029823;28;20037;-60
2024/01/10 02:08:22;;;;;;;6.75;5.22;;;;;;;18.94;42.23;102182.03;5026069;28;20519;-60
2024/01/10 02:10:49;;;;;;;6.78;4.57;;;;;;;18.92;42.16;102179.44;5031282;28;20046;-60
2024/01/10 02:13:18;;;;;;;7.20;4.85;;;;;;;18.92;42.15;102182.13;5031255;28;20060;-61
2024/01/10 02:15:45;;;;;;;6.43;4.82;;;;;;;18.93;42.08;102180.31;5029430;28;20408;-60
2024/01/10 02:18:14;;;;;;;6.53;4.57;;;;;;;18.93;42.11;102174.94;5027948;28;20049;-60
2024/01/10 02:20:44;;;;;;;6.65;4.88;;;;;;;18.92;42.15;102178.56;5038310;28;20416;-60
2024/01/10 02:23:12;;;;;;;5.88;5.03;;;;;;;18.92;42.13;102175.88;5040408;28;20049;-60
2024/01/10 02:25:40;;;;;;;7.13;4.72;;;;;;;18.92;42.12;102178.56;5048433;28;20045;-60
2024/01/10 02:28:09;;;;;;;6.80;5.22;;;;;;;18.92;42.13;102182.13;5030995;28;20042;-60
2024/01/10 02:30:37;;;;;;;6.18;4.97;;;;;;;18.92;42.19;102178.56;5035155;28;20049;-60
2024/01/10 02:33:04;;;;;;;6.07;4.50;;;;;;;18.92;42.17;102175.88;5023756;28;20044;-60
2024/01/10 02:35:33;;;;;;;6.38;4.68;;;;;;;18.93;42.12;102174.94;5028623;28;20049;-60
2024/01/10 02:38:01;;;;;;;6.25;4.57;;;;;;;18.93;42.23;102177.63;5026000;28;20057;-60
2024/01/10 02:40:29;;;;;;;6.70;4.70;;;;;;;18.91;42.29;102180.38;5032512;28;20060;-60
2024/01/10 02:42:56;;;;;;;7.13;4.43;;;;;;;18.90;42.40;102167.09;5023971;28;20041;-60
2024/01/10 02:45:24;;;;;;;6.55;5.05;;;;;;;18.92;42.27;102170.50;5027491;28;20540;-60
2024/01/10 02:47:51;;;;;;;5.95;4.63;;;;;;;18.92;42.30;102178.56;5025943;28;20049;-60
2024/01/10 02:50:19;;;;;;;6.82;4.50;;;;;;;18.91;42.26;102166.13;5032827;28;20053;-60
2024/01/10 02:52:46;;;;;;;7.38;5.00;;;;;;;18.89;42.53;102171.59;5023840;28;20050;-60
2024/01/10 02:55:13;;;;;;;6.47;4.95;;;;;;;18.90;42.39;102169.75;5032251;28;20495;-60
2024/01/10 02:57:41;;;;;;;6.85;4.20;;;;;;;18.90;42.42;102167.94;5035895;28;20053;-60
2024/01/10 03:00:09;;;;;;;6.47;4.57;;;;;;;18.90;42.48;102167.09;5023851;28;20044;-60
2024/01/10 03:02:36;;;;;;;6.43;4.50;;;;;;;18.90;42.52;102164.41;5023679;28;20041;-60
2024/01/10 03:05:04;;;;;;;5.63;4.75;;;;;;;18.89;42.40;102162.69;5028100;28;20046;-60
2024/01/10 03:07:31;;;;;;;6.07;4.78;;;;;;;18.89;42.49;102160.00;5026115;28;20461;-60
2024/01/10 03:09:58;;;;;;;5.85;4.60;;;;;;;18.88;42.54;102168.97;5032985;28;20053;-60
2024/01/10 03:12:26;;;;;;;6.28;4.55;;;;;;;18.87;42.57;102173.50;5023670;28;20387;-61
2024/01/10 03:14:53;;;;;;;5.20;4.32;;;;;;;18.87;42.60;102159.22;5028195;28;20045;-60
2024/01/10 03:17:21;;;;;;;6.50;4.13;;;;;;;18.88;42.70;102168.97;5025889;28;20054;-60
2024/01/10 03:19:48;;;;;;;7.07;4.90;;;;;;;18.88;42.77;102160.94;5041783;28;20048;-60
2024/01/10 03:22:16;;;;;;;7.07;4.90;;;;;;;18.89;42.75;102162.69;5034275;28;20491;-60
2024/01/10 03:24:44;;;;;;;6.90;4.85;;;;;;;18.88;42.79;102160.94;5036224;28;20411;-60
2024/01/10 03:27:11;;;;;;;5.82;4.03;;;;;;;18.88;42.95;102156.47;5028585;28;20380;-60
2024/01/10 03:29:38;;;;;;;5.75;4.63;;;;;;;18.89;42.73;102155.50;5029439;28;20053;-60
2024/01/10 03:32:06;;;;;;;5.68;4.65;;;;;;;18.87;42.87;102160.06;5026631;28;20056;-60
2024/01/10 03:34:34;;;;;;;6.10;4.80;;;;;;;18.89;42.82;102165.38;5037617;28;20499;-60
2024/01/10 03:37:01;;;;;;;6.25;4.50;;;;;;;18.89;42.83;102163.53;5033566;28;20113;-60
2024/01/10 03:39:28;;;;;;;7.55;4.70;;;;;;;18.89;42.87;102158.16;5032168;28;20067;-60
2024/01/10 03:41:55;;;;;;;5.40;4.00;;;;;;;18.87;42.83;102160.06;5022977;28;20049;-60
2024/01/10 03:44:23;;;;;;;7.72;4.20;;;;;;;18.87;42.56;102162.75;5030508;28;20045;-60
2024/01/10 03:46:50;;;;;;;6.60;5.05;;;;;;;18.87;42.75;102157.38;5025734;28;20053;-61
2024/01/10 03:49:17;;;;;;;6.80;5.05;;;;;;;18.87;42.73;102159.22;5028802;28;20411;-61
2024/01/10 03:51:45;;;;;;;6.43;4.22;;;;;;;18.84;42.75;102143.31;5023879;28;20052;-60
2024/01/10 03:54:12;;;;;;;5.18;4.30;;;;;;;18.83;42.86;102160.38;5027619;28;20052;-60
2024/01/10 03:56:40;;;;;;;6.22;4.70;;;;;;;18.82;42.72;102153.28;5020693;28;20538;-60
2024/01/10 03:59:07;;;;;;;5.85;4.30;;;;;;;18.82;42.85;102158.66;5031072;28;20053;-60
2024/01/10 04:01:35;;;;;;;6.40;4.85;;;;;;;18.81;42.81;102151.56;5028787;28;20067;-60
2024/01/10 04:04:02;;;;;;;7.57;4.28;;;;;;;18.80;42.80;102153.41;5038287;28;20411;-60
2024/01/10 04:06:30;;;;;;;6.05;4.28;;;;;;;18.81;42.68;102162.31;5030190;28;20046;-60
2024/01/10 04:08:58;;;;;;;4.80;3.97;;;;;;;18.78;42.82;102156.16;5027786;28;20050;-60
2024/01/10 04:11:25;;;;;;;5.70;4.32;;;;;;;18.79;42.80;102162.38;5022726;28;20045;-60
2024/01/10 04:13:52;;;;;;;6.13;4.53;;;;;;;18.78;42.80;102156.16;5028616;28;20056;-60
2024/01/10 04:16:20;;;;;;;5.15;4.25;;;;;;;18.78;42.77;102155.28;5034459;28;20480;-60
2024/01/10 04:18:47;;;;;;;7.15;4.68;;;;;;;18.77;42.74;102157.13;5033069;28;20049;-60
2024/01/10 04:21:15;;;;;;;6.43;4.78;;;;;;;18.78;42.74;102155.28;5049496;28;20067;-60
2024/01/10 04:23:42;;;;;;;6.47;4.70;;;;;;;18.77;42.83;102153.59;5040555;28;20392;-60
2024/01/10 04:26:09;;;;;;;7.55;4.35;;;;;;;18.77;42.92;102156.25;5037552;28;20416;-60
2024/01/10 04:28:39;;;;;;;5.25;4.03;;;;;;;18.76;42.81;102154.53;5032966;28;20049;-60
2024/01/10 04:31:07;;;;;;;5.22;4.50;;;;;;;18.75;42.93;102150.97;5033127;28;20056;-60
2024/01/10 04:33:35;;;;;;;5.30;4.28;;;;;;;18.75;42.91;102150.97;5037468;28;20052;-60
2024/01/10 04:36:03;;;;;;;7.30;4.30;;;;;;;18.75;42.95;102150.97;5028034;28;20053;-60
2024/01/10 04:38:31;;;;;;;5.78;5.00;;;;;;;18.76;42.97;102154.53;5036317;28;20052;-60
2024/01/10 04:40:59;;;;;;;7.40;4.50;;;;;;;18.75;43.04;102152.78;5032617;28;20396;-60
2024/01/10 04:43:26;;;;;;;5.75;4.53;;;;;;;18.75;42.99;102150.13;5030721;28;20751;-60
2024/01/10 04:45:53;;;;;;;5.45;4.30;;;;;;;18.75;43.00;102148.28;5029147;28;20053;-61
2024/01/10 04:48:21;;;;;;;7.18;4.53;;;;;;;18.75;43.05;102147.44;5030013;28;20049;-60
2024/01/10 04:50:48;;;;;;;5.85;4.57;;;;;;;18.76;42.85;102158.09;5027758;28;20438;-60
2024/01/10 04:53:16;;;;;;;7.28;4.30;;;;;;;18.76;42.91;102158.09;5028796;28;20053;-60
2024/01/10 04:55:43;;;;;;;6.00;4.20;;;;;;;18.75;43.00;102150.97;5028684;28;20042;-60
2024/01/10 04:58:11;;;;;;;6.40;4.82;;;;;;;18.75;42.87;102156.34;5035767;28;20056;-60
2024/01/10 05:00:38;;;;;;;5.78;4.68;;;;;;;18.75;43.06;102159.03;5028276;28;20040;-60
2024/01/10 05:03:06;;;;;;;5.88;4.55;;;;;;;18.75;42.78;102163.53;5029118;28;20050;-60
2024/01/10 05:05:33;;;;;;;5.63;4.28;;;;;;;18.74;42.99;102154.63;5029183;28;20057;-60
2024/01/10 05:08:01;;;;;;;4.93;3.75;;;;;;;18.73;42.88;102152.91;5036415;28;20045;-60
2024/01/10 05:10:28;;;;;;;5.18;4.05;;;;;;;18.73;42.92;102160.94;5032223;28;20480;-61
2024/01/10 05:12:56;;;;;;;6.60;4.55;;;;;;;18.74;42.92;102159.13;5031085;28;20094;-60
2024/01/10 05:15:23;;;;;;;5.78;4.00;;;;;;;18.73;42.60;102162.78;5028705;28;20046;-60
2024/01/10 05:17:51;;;;;;;5.97;4.38;;;;;;;18.73;42.96;102160.09;5040957;28;20052;-60
2024/01/10 05:20:18;;;;;;;7.32;4.47;;;;;;;18.72;42.81;102169.09;5032364;28;20049;-60
2024/01/10 05:22:45;;;;;;;6.15;4.75;;;;;;;18.70;42.82;102157.59;5036225;28;20052;-60
2024/01/10 05:25:13;;;;;;;5.88;3.90;;;;;;;18.71;42.71;102165.53;5050166;28;20048;-60
2024/01/10 05:27:40;;;;;;;5.20;4.03;;;;;;;18.70;42.73;102169.19;5038509;28;20052;-60
2024/01/10 05:30:08;;;;;;;5.50;4.25;;;;;;;18.70;42.75;102174.53;5037365;28;20053;-60
2024/01/10 05:32:36;;;;;;;5.47;4.18;;;;;;;18.69;42.87;102171.94;5034468;28;20049;-60
2024/01/10 05:35:05;;;;;;;7.28;4.93;;;;;;;18.67;42.78;102166.66;5046295;28;20041;-60
2024/01/10 05:37:32;;;;;;;5.65;4.10;;;;;;;18.67;42.82;102179.19;5035432;28;20056;-60
2024/01/10 05:40:00;;;;;;;6.35;4.20;;;;;;;18.67;42.59;102187.25;5031880;28;20049;-61
2024/01/10 05:42:28;;;;;;;6.43;4.55;;;;;;;18.66;42.80;102182.84;5031062;28;20056;-58
2024/01/10 05:44:55;;;;;;;6.22;4.60;;;;;;;18.66;42.93;102186.38;5027776;28;20049;-60
2024/01/10 05:47:22;;;;;;;8.98;4.25;;;;;;;18.66;42.93;102189.06;5035177;28;20502;-60
2024/01/10 05:49:50;;;;;;;6.95;4.13;;;;;;;18.65;42.87;102198.09;5033102;28;20053;-60
2024/01/10 05:52:17;;;;;;;6.13;4.32;;;;;;;18.64;43.06;102191.00;5036452;28;20053;-60
2024/01/10 05:54:45;;;;;;;5.18;4.20;;;;;;;18.65;42.98;102195.41;5027974;28;20038;-60
2024/01/10 05:57:12;;;;;;;6.65;4.72;;;;;;;18.65;43.08;102197.22;5025479;28;20045;-60
2024/01/10 05:59:39;;;;;;;5.63;4.03;;;;;;;18.65;43.03;102210.63;5031468;28;20046;-60
2024/01/10 06:02:07;;;;;;;6.40;4.20;;;;;;;18.64;43.06;102206.25;5020322;28;20053;-60
2024/01/10 06:04:34;;;;;;;6.13;4.93;;;;;;;18.63;43.08;102215.22;5028584;28;20050;-60
2024/01/10 06:07:03;;;;;;;5.95;4.20;;;;;;;18.62;43.20;102211.69;5031817;28;20108;-60
2024/01/10 06:09:31;;;;;;;5.90;4.30;;;;;;;18.62;43.06;102219.72;5037599;28;20494;-60
2024/01/10 06:12:01;;;;;;;5.65;4.38;;;;;;;18.62;43.16;102217.03;5028141;28;20076;-60
2024/01/10 06:14:28;;;;;;;4.45;3.70;;;;;;;18.62;43.23;102219.72;5028025;28;20057;-59
2024/01/10 06:16:59;;;;;;;6.68;4.57;;;;;;;18.62;43.20;102219.72;5044982;28;20056;-60
2024/01/10 06:19:26;;;;;;;5.22;4.10;;;;;;;18.61;42.89;102218.00;5050176;28;20037;-60
2024/01/10 06:21:54;;;;;;;11.55;5.03;;;;;;;18.62;43.05;102218.88;5043749;28;20068;-60
2024/01/10 06:24:21;;;;;;;5.07;4.03;;;;;;;18.63;43.03;102218.75;5031944;28;20046;-60
2024/01/10 06:26:52;;;;;;;6.82;4.40;;;;;;;18.62;42.94;102235.81;5029249;28;20476;-60
2024/01/10 06:29:19;;;;;;;4.88;3.80;;;;;;;18.61;43.13;102228.72;5036274;28;20064;-60
2024/01/10 06:31:47;;;;;;;6.00;4.07;;;;;;;18.60;43.07;102220.78;5028743;28;20049;-60
2024/01/10 06:34:15;;;;;;;5.70;4.55;;;;;;;18.58;43.17;102218.19;5029990;28;20049;-60
2024/01/10 06:36:42;;;;;;;5.93;4.32;;;;;;;18.58;43.03;102226.22;5033063;28;20132;-60
2024/01/10 06:39:13;;;;;;;6.72;4.55;;;;;;;18.58;43.01;102220.88;5033495;28;20041;-60
2024/01/10 06:41:42;;;;;;;6.03;4.80;;;;;;;18.59;43.12;102229.78;5032326;28;20045;-58
2024/01/10 06:44:09;;;;;;;5.47;4.35;;;;;;;18.59;43.00;102230.63;5029469;28;20054;-60
2024/01/10 06:46:38;;;;;;;7.53;4.30;;;;;;;18.59;43.04;102224.41;5029812;28;20056;-61
2024/01/10 06:49:07;;;;;;;5.97;4.28;;;;;;;18.58;43.06;102230.75;5030815;28;20050;-60
2024/01/10 06:51:34;;;;;;;16.63;4.82;;;;;;;18.58;43.13;102230.75;5027586;28;20050;-60
2024/01/10 06:54:05;;;;;;;5.60;3.90;;;;;;;18.57;43.06;102243.28;5031508;28;20050;-60
2024/01/10 06:56:33;;;;;;;6.68;4.25;;;;;;;18.56;43.17;102243.41;5033485;28;20867;-60
2024/01/10 06:59:01;;;;;;;5.43;4.22;;;;;;;18.55;43.12;102250.53;5037941;28;20067;-60
2024/01/10 07:01:28;;;;;;;6.28;4.32;;;;;;;18.55;43.13;102242.50;5027385;28;20044;-58
2024/01/10 07:03:56;;;;;;;5.57;3.97;;;;;;;18.56;43.22;102251.44;5020541;28;20049;-58
2024/01/10 07:06:23;;;;;;;7.20;4.40;;;;;;;18.53;43.28;102250.66;5048244;28;20044;-59
2024/01/10 07:08:51;;;;;;;5.00;4.18;;;;;;;18.54;43.22;102256.88;5035062;28;20045;-59
2024/01/10 07:11:21;;;;;;;6.82;4.70;;;;;;;18.54;43.27;102257.72;5026845;28;20042;-59
2024/01/10 07:13:49;;;;;;;5.75;4.05;;;;;;;18.53;43.22;102258.69;5033651;28;20048;-59
2024/01/10 07:16:18;;;;;;;5.85;4.20;;;;;;;18.53;43.29;102264.06;5038081;28;20050;-59
2024/01/10 07:18:47;;;;;;;5.38;4.10;;;;;;;18.53;43.20;102264.06;5030578;28;20052;-59
2024/01/10 07:21:14;;;;;;;5.30;4.00;;;;;;;18.54;43.31;102264.91;5027239;28;20117;-62
2024/01/10 07:23:43;;;;;;;7.20;4.38;;;;;;;18.53;43.38;102255.16;5043342;28;20048;-59
2024/01/10 07:26:14;;;;;;;6.70;4.47;;;;;;;18.54;43.34;102259.56;5031706;28;20067;-59
2024/01/10 07:28:41;;;;;;;6.18;4.45;;;;;;;18.53;43.53;102260.53;5037297;28;20407;-60
2024/01/10 07:31:11;;;;;;;6.57;4.05;;;;;;;18.54;43.47;102271.13;5027551;28;20056;-60
2024/01/10 07:33:39;;;;;;;5.97;4.00;;;;;;;18.56;43.34;102278.25;5034168;28;20107;-60
2024/01/10 07:36:07;;;;;;;5.85;4.32;;;;;;;18.54;43.49;102279.19;5030966;28;20526;-60
2024/01/10 07:38:34;;;;;;;7.05;4.13;;;;;;;18.56;43.47;102275.56;5027414;28;20046;-60
2024/01/10 07:41:02;;;;;;;7.22;4.55;;;;;;;18.53;43.42;102285.50;5031011;28;20053;-60
2024/01/10 07:43:29;;;;;;;5.03;4.07;;;;;;;18.56;43.51;102294.34;5032821;28;20407;-60
2024/01/10 07:45:57;;;;;;;5.65;4.03;;;;;;;18.54;43.44;102289.91;5030549;28;20048;-60
2024/01/10 07:48:24;;;;;;;7.97;4.57;;;;;;;18.56;43.57;102302.41;5029048;28;20054;-60
2024/01/10 07:50:52;;;;;;;6.22;3.97;;;;;;;18.58;43.42;102298.66;5031885;28;20049;-58
2024/01/10 07:53:19;;;;;;;5.47;4.13;;;;;;;18.57;43.29;102304.13;5041629;28;20044;-59
2024/01/10 07:55:47;;;;;;;6.28;3.92;;;;;;;18.55;43.40;102298.81;5030674;28;20057;-59
2024/01/10 07:58:15;;;;;;;6.35;4.45;;;;;;;18.54;43.40;102302.47;5032762;28;20056;-60
2024/01/10 08:00:43;;;;;;;6.57;3.85;;;;;;;18.54;43.19;102313.19;5041079;28;20046;-60
2024/01/10 08:03:10;;;;;;;7.35;5.00;;;;;;;18.53;43.20;102312.34;5031518;28;20411;-60
2024/01/10 08:05:37;;;;;;;6.88;4.55;;;;;;;18.53;43.31;102311.47;5029590;28;20044;-60
2024/01/10 08:08:05;;;;;;;6.43;4.40;;;;;;;18.53;43.18;102311.47;5033288;28;20041;-60
2024/01/10 08:10:33;;;;;;;7.35;4.60;;;;;;;18.53;43.19;102315.00;5032680;28;20061;-60
2024/01/10 08:13:03;;;;;;;4.38;3.90;;;;;;;18.53;43.27;102317.69;5036614;28;20479;-60
2024/01/10 08:15:30;;;;;;;6.57;4.50;;;;;;;18.53;43.20;102322.19;5034311;28;20056;-59
2024/01/10 08:17:57;;;;;;;5.47;3.85;;;;;;;18.52;43.18;102320.47;5032948;28;20053;-59
2024/01/10 08:20:25;;;;;;;6.25;4.50;;;;;;;18.52;43.14;102325.84;5032492;28;20046;-59
2024/01/10 08:22:53;;;;;;;7.70;4.80;;;;;;;18.51;43.19;102316.94;5036581;28;20506;-60
2024/01/10 08:25:20;;;;;;;6.57;4.38;;;;;;;18.50;43.10;102320.56;5033910;28;20399;-60
2024/01/10 08:27:48;;;;;;;7.22;4.53;;;;;;;18.50;42.86;102325.06;5026259;28;20071;-60
2024/01/10 08:30:16;;;;;;;9.60;6.00;;;;;;;18.51;41.44;102332.13;5034949;28;20058;-61
2024/01/10 08:32:43;;;;;;;10.40;6.40;;;;;;;18.49;40.04;102334.06;5035074;28;20045;-60
2024/01/10 08:35:11;;;;;;;10.57;7.05;;;;;;;18.46;39.50;102331.56;5039586;28;20056;-60
2024/01/10 08:37:42;;;;;;;8.00;6.25;;;;;;;18.45;38.87;102335.19;5031824;28;20048;-60
2024/01/10 08:40:12;;;;;;;10.90;6.43;;;;;;;18.40;38.73;102337.28;5033391;28;20052;-59
2024/01/10 08:42:39;;;;;;;8.93;5.82;;;;;;;18.37;39.36;102332.09;5034730;28;20041;-61
2024/01/10 08:45:09;;;;;;;6.53;4.57;;;;;;;18.38;40.27;102340.03;5033462;28;20041;-61
2024/01/10 08:47:37;;;;;;;6.90;4.40;;;;;;;18.39;40.90;102338.22;5030774;28;20053;-59
2024/01/10 08:50:08;;;;;;;7.57;5.20;;;;;;;18.40;41.23;102348.03;5034571;28;20046;-59
2024/01/10 08:52:39;;;;;;;7.13;5.43;;;;;;;18.40;41.30;102342.66;5034056;28;20053;-58
2024/01/10 08:55:07;;;;;;;6.75;5.05;;;;;;;18.45;41.27;102351.28;5038285;28;20072;-58
2024/01/10 08:57:40;;;;;;;7.43;4.78;;;;;;;18.45;41.23;102346.78;5029945;28;20050;-59
2024/01/10 09:00:11;;;;;;;7.85;5.30;;;;;;;18.46;41.30;102353.00;5038746;28;20479;-58
2024/01/10 09:02:39;;;;;;;7.07;4.78;;;;;;;18.45;41.20;102345.91;5033370;28;20045;-58
2024/01/10 09:05:09;;;;;;;6.55;5.20;;;;;;;18.47;41.27;102358.31;5018182;28;20381;-58
2024/01/10 09:07:38;;;;;;;6.97;4.35;;;;;;;18.47;41.21;102355.63;5030801;28;20496;-59
2024/01/10 09:10:07;;;;;;;10.73;5.60;;;;;;;18.47;41.17;102368.13;5035436;28;20056;-59
2024/01/10 09:12:35;;;;;;;8.15;4.70;;;;;;;18.48;41.23;102372.56;5033611;28;20042;-59
2024/01/10 09:15:03;;;;;;;7.20;4.70;;;;;;;18.50;41.46;102382.22;5031431;28;20041;-59
2024/01/10 09:17:30;;;;;;;7.82;4.95;;;;;;;18.49;41.12;102377.84;5034896;28;20048;-59
2024/01/10 09:19:58;;;;;;;9.52;5.50;;;;;;;18.47;39.93;102374.41;5030147;28;20081;-61
2024/01/10 09:22:25;;;;;;;8.02;5.65;;;;;;;18.44;39.71;102379.06;5039512;28;20056;-61
2024/01/10 09:24:52;;;;;;;10.35;6.75;;;;;;;18.37;37.60;102383.03;5031364;28;20048;-61
2024/01/10 09:27:20;;;;;;;8.10;6.72;;;;;;;18.27;36.35;102390.72;5032361;28;20515;-61
2024/01/10 09:29:47;;;;;;;9.73;7.05;;;;;;;18.21;36.72;102391.09;5033972;28;20057;-62
2024/01/10 09:32:14;;;;;;;8.82;6.07;;;;;;;18.18;37.48;102385.91;5033122;28;20411;-61
2024/01/10 09:34:42;;;;;;;7.13;5.97;;;;;;;18.17;38.04;102390.41;5031167;28;20057;-61
2024/01/10 09:37:09;;;;;;;6.60;5.68;;;;;;;18.20;38.55;102397.41;5031795;28;20361;-61
2024/01/10 09:39:37;;;;;;;6.80;5.15;;;;;;;18.22;38.85;102396.34;5034938;28;20045;-61
2024/01/10 09:42:04;;;;;;;8.35;5.75;;;;;;;18.22;39.14;102390.13;5033019;28;20049;-62
2024/01/10 09:44:33;;;;;;;9.70;6.88;;;;;;;18.22;38.82;102393.66;5030742;28;20049;-62
2024/01/10 09:47:02;;;;;;;6.40;5.35;;;;;;;18.20;39.05;102392.91;5032093;28;20045;-62
2024/01/10 09:49:29;;;;;;;5.68;4.80;;;;;;;18.22;39.15;102391.00;5033421;28;20048;-62
2024/01/10 09:52:00;;;;;;;8.85;5.90;;;;;;;18.23;39.36;102391.84;5038333;28;20409;-63
2024/01/10 09:54:30;;;;;;;6.63;5.03;;;;;;;18.23;39.19;102390.06;5031276;28;20045;-62
2024/01/10 09:56:58;;;;;;;9.30;7.35;;;;;;;18.05;34.46;102383.03;5031661;28;20042;-61
2024/01/10 09:59:25;;;;;;;9.93;7.35;;;;;;;17.72;33.00;102391.97;5040688;28;20496;-61
2024/01/10 10:01:53;;;;;;;7.82;6.13;;;;;;;17.57;33.20;102389.25;5032832;28;20056;-64
2024/01/10 10:04:23;;;;;;;8.27;6.10;;;;;;;17.56;34.07;102391.06;5028820;28;20060;-63
2024/01/10 10:07:03;;;;;;;7.53;5.70;;;;;;;17.62;36.56;102389.84;5021979;28;20041;-63
2024/01/10 10:09:31;;;;;;;6.88;5.03;;;;;;;17.68;38.05;102389.53;5025714;28;20484;-63
2024/01/10 10:11:59;;;;;;;6.22;4.80;;;;;;;17.73;38.59;102385.66;5032269;28;20060;-63
2024/01/10 10:14:29;;;;;;;6.82;5.50;;;;;;;17.81;38.89;102395.13;5030022;28;20061;-63
2024/01/10 10:17:14;;;;;;;7.57;5.32;;;;;;;17.86;39.24;102387.69;5034617;28;20038;-63
2024/01/10 10:19:43;;;;;;;6.13;4.45;;;;;;;17.91;39.43;102391.00;5032624;28;20052;-63
2024/01/10 10:22:11;;;;;;;6.78;5.15;;;;;;;17.95;39.41;102387.19;5028826;28;20065;-63
2024/01/10 10:24:39;;;;;;;7.65;5.18;;;;;;;17.98;39.63;102381.66;5035716;28;20052;-63
2024/01/10 10:27:15;;;;;;;5.20;4.22;;;;;;;18.01;39.63;102381.47;5028562;28;20042;-63
2024/01/10 10:29:42;;;;;;;6.43;4.82;;;;;;;18.02;39.74;102375.16;5032416;28;20061;-63
2024/01/10 10:32:15;;;;;;;6.88;4.10;;;;;;;18.06;39.87;102376.72;5031792;28;20484;-63
2024/01/10 10:34:43;;;;;;;5.80;4.47;;;;;;;18.08;40.00;102372.16;5033599;28;20044;-63
2024/01/10 10:37:11;;;;;;;6.57;4.70;;;;;;;18.11;39.97;102371.09;5032491;28;20037;-63
2024/01/10 10:39:39;;;;;;;6.90;5.13;;;;;;;18.12;39.99;102373.72;5030206;28;20052;-63
2024/01/10 10:42:06;;;;;;;5.95;4.40;;;;;;;18.14;39.95;102368.25;5031822;28;20050;-63
2024/01/10 10:44:39;;;;;;;7.03;4.63;;;;;;;18.16;40.05;102371.72;5034031;28;20045;-62
2024/01/10 10:47:11;;;;;;;6.60;4.13;;;;;;;18.17;40.05;102374.31;5032044;28;20057;-62
2024/01/10 10:49:54;;;;;;;6.70;4.63;;;;;;;18.18;40.03;102373.34;5028864;28;20057;-62
2024/01/10 10:52:23;;;;;;;6.05;4.18;;;;;;;18.19;40.05;102371.53;5038724;28;20063;-62
2024/01/10 10:54:55;;;;;;;9.30;4.85;;;;;;;18.20;40.11;102368.78;5031473;28;20411;-62
2024/01/10 10:57:26;;;;;;;5.90;4.72;;;;;;;18.21;40.05;102377.69;5029149;28;20467;-62
2024/01/10 10:59:55;;;;;;;6.55;4.30;;;;;;;18.21;40.20;102380.38;5031614;28;20102;-61
2024/01/10 11:02:23;;;;;;;4.80;3.78;;;;;;;18.22;40.14;102366.88;5032170;28;20050;-62
2024/01/10 11:04:58;;;;;;;7.00;4.85;;;;;;;18.21;40.17;102365.16;5032120;28;20053;-63
2024/01/10 11:07:27;;;;;;;6.15;4.47;;;;;;;18.21;40.26;102365.16;5019483;28;20038;-63
2024/01/10 11:09:55;;;;;;;5.95;4.32;;;;;;;18.22;40.15;102363.31;5036105;28;20047;-63
2024/01/10 11:12:44;;;;;;;5.43;4.03;;;;;;;18.22;40.15;102361.50;5032195;28;20045;-62
2024/01/10 11:15:53;;;;;;;6.80;4.55;;;;;;;18.22;40.31;102371.38;5029138;28;20072;-62
2024/01/10 11:18:35;;;;;;;6.80;3.95;;;;;;;18.22;40.26;102364.19;5029129;28;20060;-62
2024/01/10 11:21:30;;;;;;;4.70;3.55;;;;;;;18.22;40.15;102360.63;5031327;28;20060;-61
2024/01/10 11:23:59;;;;;;;5.07;3.90;;;;;;;18.23;40.24;102362.38;5042660;28;20419;-61
2024/01/10 11:26:27;;;;;;;5.38;4.03;;;;;;;18.23;40.24;102352.53;5033152;28;20042;-61
2024/01/10 11:28:57;;;;;;;5.50;4.00;;;;;;;18.23;40.26;102348.97;5036706;28;20391;-63